Time;durP1;ratioP1;P1;durP2;ratioP2;P2;SDS_P1;SDS_P2;PMS_P1;PMS_P2;Temp;Humidity;BMP_temperature;BMP_pressure;BME280_temperature;BME280_humidity;BME280_pressure;Samples;Min_cycle;Max_cycle;Signal;HPM_P1;HPM_P2
2021/11/06 00:01:44;;;;;;;9.57;7.68;;;4.00;99.90;;;;;;5017307;28;20459;-72
2021/11/06 00:04:16;;;;;;;12.15;9.43;;;4.10;99.90;;;;;;5033200;28;20488;-72
2021/11/06 00:06:47;;;;;;;14.15;11.50;;;4.10;99.90;;;;;;5050517;28;20049;-72
2021/11/06 00:09:14;;;;;;;13.95;11.13;;;4.10;99.90;;;;;;5032496;28;20447;-72
2021/11/06 00:11:46;;;;;;;13.30;9.80;;;4.10;99.90;;;;;;5032524;28;20508;-72
2021/11/06 00:14:13;;;;;;;11.73;9.20;;;4.00;99.90;;;;;;5049929;28;20045;-72
2021/11/06 00:16:40;;;;;;;12.75;9.50;;;4.00;99.90;;;;;;5032654;28;20048;-72
2021/11/06 00:19:12;;;;;;;10.90;8.63;;;4.00;99.90;;;;;;5050492;28;20056;-72
2021/11/06 00:21:39;;;;;;;11.40;8.20;;;4.10;99.90;;;;;;5050367;28;20049;-72
2021/11/06 00:24:06;;;;;;;11.07;8.15;;;4.10;99.90;;;;;;5033827;28;20080;-72
2021/11/06 00:26:33;;;;;;;10.93;8.30;;;4.10;99.90;;;;;;5053928;28;20045;-72
2021/11/06 00:29:05;;;;;;;11.05;8.25;;;4.20;99.90;;;;;;5035985;28;20099;-72
2021/11/06 00:31:32;;;;;;;9.95;7.15;;;4.20;99.90;;;;;;5036253;28;20044;-72
2021/11/06 00:34:05;;;;;;;10.80;8.48;;;4.20;99.90;;;;;;5035918;28;20045;-72
2021/11/06 00:36:37;;;;;;;;;;;4.20;99.90;;;;;;5054251;28;20028;-72
2021/11/06 00:39:05;;;;;;;9.57;6.75;;;4.20;99.90;;;;;;5053778;28;20283;-72
2021/11/06 00:41:37;;;;;;;10.25;7.60;;;4.20;99.90;;;;;;5035622;28;20051;-72
2021/11/06 00:44:09;;;;;;;9.57;7.15;;;4.20;99.90;;;;;;5053331;28;20500;-72
2021/11/06 00:46:41;;;;;;;12.43;7.47;;;4.20;99.90;;;;;;5019881;28;20504;-72
2021/11/06 00:49:08;;;;;;;11.20;7.63;;;4.20;99.90;;;;;;5053586;28;20048;-72
2021/11/06 00:51:38;;;;;;;12.88;8.13;;;4.30;99.90;;;;;;5052289;28;20128;-72
2021/11/06 00:54:05;;;;;;;11.85;8.27;;;4.20;99.90;;;;;;5035247;28;20120;-72
2021/11/06 00:56:32;;;;;;;10.02;7.65;;;4.20;99.90;;;;;;5053376;28;20068;-72
2021/11/06 00:58:59;;;;;;;10.32;7.05;;;4.30;99.90;;;;;;5035291;28;20095;-72
2021/11/06 01:01:31;;;;;;;12.45;8.27;;;4.30;99.90;;;;;;5053431;28;20064;-72
2021/11/06 01:03:59;;;;;;;9.00;7.15;;;4.30;99.90;;;;;;5035555;28;20052;-72
2021/11/06 01:06:26;;;;;;;9.73;7.43;;;4.30;99.90;;;;;;5035384;28;20061;-72
2021/11/06 01:08:53;;;;;;;11.05;7.93;;;4.20;99.90;;;;;;5035476;28;20092;-72
2021/11/06 01:11:20;;;;;;;9.70;7.38;;;4.30;99.90;;;;;;5045173;28;20408;-72
2021/11/06 01:13:52;;;;;;;10.05;6.82;;;4.30;99.90;;;;;;5035024;28;20067;-72
2021/11/06 01:16:24;;;;;;;11.05;7.70;;;4.30;99.90;;;;;;5034825;28;20048;-72
2021/11/06 01:18:51;;;;;;;11.95;8.63;;;4.30;99.90;;;;;;5051815;28;20040;-72
2021/11/06 01:21:18;;;;;;;10.32;8.30;;;4.30;99.90;;;;;;5035024;28;20076;-72
2021/11/06 01:23:46;;;;;;;10.85;8.20;;;4.30;99.90;;;;;;5052808;28;20037;-72
2021/11/06 01:26:18;;;;;;;9.55;7.18;;;4.30;99.90;;;;;;5052661;28;20040;-72
2021/11/06 01:28:50;;;;;;;12.43;8.00;;;4.30;99.90;;;;;;5052838;28;20052;-72
2021/11/06 01:31:22;;;;;;;10.40;7.20;;;4.20;99.90;;;;;;5034817;28;20419;-72
2021/11/06 01:33:54;;;;;;;10.50;7.78;;;4.20;99.90;;;;;;5034603;28;20056;-72
2021/11/06 01:36:26;;;;;;;11.57;7.68;;;4.20;99.90;;;;;;5051944;28;20644;-72
2021/11/06 01:38:58;;;;;;;11.75;7.82;;;4.20;99.90;;;;;;5052977;28;20120;-72
2021/11/06 01:41:31;;;;;;;12.30;8.40;;;4.20;99.90;;;;;;5052620;28;20104;-72
2021/11/06 01:43:58;;;;;;;15.45;8.15;;;4.20;99.90;;;;;;5018537;28;20049;-72
2021/11/06 01:46:30;;;;;;;11.00;8.35;;;4.20;99.90;;;;;;5052845;28;20068;-72
2021/11/06 01:49:03;;;;;;;12.07;8.23;;;4.20;99.90;;;;;;5019321;28;20549;-72
2021/11/06 01:51:30;;;;;;;10.65;8.50;;;4.20;99.90;;;;;;5035360;28;20073;-72
2021/11/06 01:53:57;;;;;;;12.02;7.85;;;4.20;99.90;;;;;;5035134;28;20510;-72
2021/11/06 01:56:30;;;;;;;11.75;7.88;;;4.20;99.90;;;;;;5036025;28;20056;-72
2021/11/06 01:59:02;;;;;;;12.83;8.27;;;4.20;99.90;;;;;;5035643;28;20053;-72
2021/11/06 02:01:35;;;;;;;11.20;7.97;;;4.20;99.90;;;;;;5035498;28;20049;-72
2021/11/06 02:04:07;;;;;;;11.23;7.85;;;4.20;99.90;;;;;;5035190;28;20041;-72
2021/11/06 02:06:34;;;;;;;12.02;8.57;;;4.30;99.90;;;;;;5035986;28;20263;-77
2021/11/06 02:09:06;;;;;;;11.23;8.93;;;4.30;99.90;;;;;;5052472;28;20040;-72
2021/11/06 02:11:38;;;;;;;10.60;7.57;;;4.30;99.90;;;;;;5071691;28;20044;-72
2021/11/06 02:14:10;;;;;;;11.40;7.72;;;4.30;99.90;;;;;;5053771;28;20044;-72
2021/11/06 02:16:42;;;;;;;9.95;7.68;;;4.20;99.90;;;;;;5053946;28;20059;-72
2021/11/06 02:19:09;;;;;;;11.55;8.32;;;4.30;99.90;;;;;;5037429;28;20439;-72
2021/11/06 02:21:41;;;;;;;11.70;7.75;;;4.30;99.90;;;;;;5054624;28;20048;-72
2021/11/06 02:24:13;;;;;;;11.02;7.80;;;4.30;99.90;;;;;;5053335;28;20460;-72
2021/11/06 02:26:40;;;;;;;11.23;7.70;;;4.30;99.90;;;;;;5054105;28;20458;-72
2021/11/06 02:29:07;;;;;;;11.88;7.07;;;4.30;99.90;;;;;;5054285;28;20040;-72
2021/11/06 02:31:36;;;;;;;9.82;7.47;;;4.30;99.90;;;;;;5038159;28;20048;-72
2021/11/06 02:34:06;;;;;;;10.98;7.70;;;4.30;99.90;;;;;;5054386;28;20043;-72
2021/11/06 02:36:33;;;;;;;11.65;7.95;;;4.30;99.90;;;;;;5037356;28;20167;-72
2021/11/06 02:39:08;;;;;;;13.35;9.23;;;4.20;99.90;;;;;;5037947;28;20098;-72
2021/11/06 02:41:40;;;;;;;11.77;8.30;;;4.20;99.90;;;;;;5053429;28;20040;-72
2021/11/06 02:44:09;;;;;;;12.77;8.75;;;4.20;99.90;;;;;;5053568;28;20060;-72
2021/11/06 02:46:42;;;;;;;11.20;7.57;;;4.20;99.90;;;;;;5053748;28;20034;-72
2021/11/06 02:49:13;;;;;;;14.50;8.77;;;4.20;99.90;;;;;;5054181;28;20519;-72
2021/11/06 02:51:45;;;;;;;11.93;8.20;;;4.20;99.90;;;;;;5038053;28;20036;-72
2021/11/06 02:54:18;;;;;;;12.27;8.43;;;4.20;99.90;;;;;;5053557;28;20037;-72
2021/11/06 02:56:45;;;;;;;11.15;7.25;;;4.20;99.90;;;;;;5037239;28;20048;-72
2021/11/06 02:59:12;;;;;;;11.48;8.38;;;4.20;99.90;;;;;;5053595;28;20624;-72
2021/11/06 03:01:44;;;;;;;10.70;7.22;;;4.20;99.90;;;;;;5053713;28;20520;-72
2021/11/06 03:04:17;;;;;;;9.50;6.72;;;4.20;99.90;;;;;;5053475;28;20127;-72
2021/11/06 03:06:49;;;;;;;11.00;7.32;;;4.10;99.90;;;;;;5037887;28;20143;-72
2021/11/06 03:09:23;;;;;;;8.55;6.90;;;4.10;99.90;;;;;;5029874;28;20537;-72
2021/11/06 03:11:55;;;;;;;9.50;7.47;;;4.10;99.90;;;;;;5053872;28;20170;-72
2021/11/06 03:14:25;;;;;;;7.55;5.80;;;4.00;99.90;;;;;;5053353;28;20116;-72
2021/11/06 03:16:57;;;;;;;8.40;6.45;;;4.00;99.90;;;;;;5054564;28;20056;-72
2021/11/06 03:19:24;;;;;;;8.13;6.13;;;3.90;99.90;;;;;;5053762;28;20044;-72
2021/11/06 03:21:51;;;;;;;8.60;6.47;;;3.90;99.90;;;;;;5053482;28;20044;-72
2021/11/06 03:24:18;;;;;;;7.38;6.47;;;3.80;99.90;;;;;;5036408;28;20170;-72
2021/11/06 03:26:50;;;;;;;8.30;6.13;;;3.80;99.90;;;;;;5071557;28;20040;-72
2021/11/06 03:29:17;;;;;;;7.63;6.10;;;3.70;99.90;;;;;;5053258;28;20514;-72
2021/11/06 03:31:50;;;;;;;8.85;6.55;;;3.70;99.90;;;;;;5054337;28;20033;-72
2021/11/06 03:34:17;;;;;;;8.77;6.40;;;3.60;99.90;;;;;;5036591;28;20068;-72
2021/11/06 03:36:44;;;;;;;10.70;7.15;;;3.60;99.90;;;;;;5053420;28;20045;-72
2021/11/06 03:39:16;;;;;;;12.32;8.55;;;3.50;99.90;;;;;;5054371;28;20048;-72
2021/11/06 03:41:43;;;;;;;10.45;7.72;;;3.50;99.90;;;;;;5036698;28;20048;-72
2021/11/06 03:44:16;;;;;;;12.30;8.52;;;3.50;99.90;;;;;;5037147;28;20044;-72
2021/11/06 03:46:43;;;;;;;10.90;7.35;;;3.40;99.90;;;;;;5052806;28;20044;-72
2021/11/06 03:49:10;;;;;;;11.40;7.85;;;3.30;99.90;;;;;;5071072;28;20041;-72
2021/11/06 03:51:38;;;;;;;9.75;7.85;;;3.30;99.90;;;;;;5053166;28;20048;-72
2021/11/06 03:54:04;;;;;;;10.55;7.65;;;3.20;99.90;;;;;;5053109;28;20132;-72
2021/11/06 03:56:37;;;;;;;12.80;7.75;;;3.10;99.90;;;;;;5071109;28;20115;-72
2021/11/06 03:59:04;;;;;;;11.73;8.13;;;3.10;99.90;;;;;;5055395;28;20049;-72
2021/11/06 04:01:36;;;;;;;11.13;6.85;;;3.00;99.90;;;;;;5040617;28;20111;-72
2021/11/06 04:04:03;;;;;;;10.15;7.50;;;2.90;99.90;;;;;;5057218;28;20045;-72
2021/11/06 04:06:30;;;;;;;10.00;6.45;;;2.80;99.90;;;;;;5074839;28;20044;-72
2021/11/06 04:08:57;;;;;;;10.48;6.35;;;2.80;99.90;;;;;;5057223;28;20041;-72
2021/11/06 04:11:29;;;;;;;10.10;6.97;;;2.80;99.90;;;;;;5074875;28;20040;-72
2021/11/06 04:13:56;;;;;;;9.93;7.00;;;2.70;99.90;;;;;;5056739;28;20036;-72
2021/11/06 04:16:23;;;;;;;9.90;7.05;;;2.70;99.90;;;;;;5074378;28;20517;-72
2021/11/06 04:18:50;;;;;;;8.98;5.97;;;2.70;99.90;;;;;;5074781;28;20040;-72
2021/11/06 04:21:18;;;;;;;10.25;6.32;;;2.70;99.90;;;;;;5056654;28;20058;-72
2021/11/06 04:23:49;;;;;;;11.55;7.10;;;2.70;99.90;;;;;;5057510;28;20525;-72
2021/11/06 04:26:21;;;;;;;10.05;6.55;;;2.60;99.90;;;;;;5056261;28;20044;-72
2021/11/06 04:28:53;;;;;;;11.70;7.00;;;2.50;99.90;;;;;;5074455;28;20395;-72
2021/11/06 04:31:25;;;;;;;12.65;7.25;;;2.40;99.90;;;;;;5074472;28;20041;-72
2021/11/06 04:34:00;;;;;;;10.13;6.25;;;2.30;99.90;;;;;;5056435;28;20513;-72
2021/11/06 04:36:32;;;;;;;9.43;6.70;;;2.30;99.90;;;;;;5056572;28;20107;-72
2021/11/06 04:39:04;;;;;;;10.40;6.93;;;2.20;99.90;;;;;;5074404;28;20041;-72
2021/11/06 04:41:36;;;;;;;10.18;7.45;;;2.10;99.90;;;;;;5056868;28;20049;-72
2021/11/06 04:44:03;;;;;;;9.52;6.65;;;2.10;99.90;;;;;;5074224;28;20060;-72
2021/11/06 04:46:30;;;;;;;10.23;6.50;;;2.10;99.90;;;;;;5056353;28;20495;-72
2021/11/06 04:49:02;;;;;;;10.32;6.47;;;2.20;99.90;;;;;;5057265;28;20040;-72
2021/11/06 04:51:34;;;;;;;10.80;7.25;;;2.20;99.90;;;;;;5074132;28;20028;-72
2021/11/06 04:54:06;;;;;;;10.52;7.03;;;2.20;99.90;;;;;;5073835;28;20040;-72
2021/11/06 04:56:33;;;;;;;9.05;6.20;;;2.30;99.90;;;;;;5073945;28;20064;-72
2021/11/06 04:59:00;;;;;;;10.45;6.60;;;2.30;99.90;;;;;;5056704;28;20040;-72
2021/11/06 05:01:32;;;;;;;10.38;7.03;;;2.30;99.90;;;;;;5040342;28;20060;-72
2021/11/06 05:04:04;;;;;;;7.85;5.78;;;2.40;99.90;;;;;;5056037;28;20048;-72
2021/11/06 05:06:36;;;;;;;8.27;5.80;;;2.30;99.90;;;;;;5040029;28;20048;-72
2021/11/06 05:09:03;;;;;;;6.35;4.97;;;2.30;99.90;;;;;;5056065;28;20095;-72
2021/11/06 05:11:35;;;;;;;7.97;5.32;;;2.30;99.90;;;;;;5054756;28;20414;-72
2021/11/06 05:14:07;;;;;;;8.40;5.97;;;2.30;99.90;;;;;;5055744;28;20048;-72
2021/11/06 05:16:39;;;;;;;7.43;5.45;;;2.30;99.90;;;;;;5055807;28;20044;-72
2021/11/06 05:19:11;;;;;;;13.88;6.57;;;2.40;99.90;;;;;;5039988;28;20064;-72
2021/11/06 05:21:45;;;;;;;10.25;5.97;;;2.40;99.90;;;;;;5039672;28;20395;-72
2021/11/06 05:24:12;;;;;;;12.13;6.78;;;2.50;99.90;;;;;;5073212;28;20415;-72
2021/11/06 05:26:39;;;;;;;16.05;7.80;;;2.50;99.90;;;;;;5073572;28;20045;-72
2021/11/06 05:29:09;;;;;;;12.70;8.10;;;2.60;99.90;;;;;;5055596;28;20041;-72
2021/11/06 05:31:41;;;;;;;19.77;8.43;;;2.60;99.90;;;;;;5055351;28;20041;-72
2021/11/06 05:34:07;;;;;;;34.55;9.18;;;2.60;99.90;;;;;;5055159;28;20119;-72
2021/11/06 05:36:39;;;;;;;26.65;8.13;;;2.60;99.90;;;;;;5039599;28;20040;-72
2021/11/06 05:39:06;;;;;;;31.63;8.52;;;2.60;99.90;;;;;;5055348;28;20419;-72
2021/11/06 05:41:33;;;;;;;21.23;7.40;;;2.60;99.90;;;;;;5055180;28;20056;-72
2021/11/06 05:44:06;;;;;;;38.85;7.93;;;2.60;99.90;;;;;;5054903;28;20048;-72
2021/11/06 05:46:33;;;;;;;20.92;7.13;;;2.60;99.90;;;;;;5073341;28;20506;-72
2021/11/06 05:49:05;;;;;;;28.25;7.35;;;2.60;99.90;;;;;;5056038;28;20032;-72
2021/11/06 05:51:31;;;;;;;17.38;8.10;;;2.60;99.90;;;;;;5055326;28;20048;-72
2021/11/06 05:53:58;;;;;;;13.85;7.72;;;2.60;99.90;;;;;;5054847;28;20052;-72
2021/11/06 05:56:30;;;;;;;18.63;7.75;;;2.60;99.90;;;;;;5054887;28;20317;-72
2021/11/06 05:59:03;;;;;;;21.65;8.10;;;2.60;99.90;;;;;;5072950;28;20040;-72
2021/11/06 06:01:30;;;;;;;34.88;7.55;;;2.60;99.90;;;;;;5054846;28;20059;-72
2021/11/06 06:04:02;;;;;;;16.42;7.60;;;2.60;99.90;;;;;;5055078;28;20071;-72
2021/11/06 06:06:34;;;;;;;16.40;8.93;;;2.60;99.90;;;;;;5055742;28;20545;-72
2021/11/06 06:09:06;;;;;;;17.27;8.35;;;2.60;99.90;;;;;;5060990;28;20055;-72
2021/11/06 06:11:38;;;;;;;29.65;9.80;;;2.60;99.90;;;;;;5029342;28;20040;-72
2021/11/06 06:14:05;;;;;;;16.90;10.23;;;2.60;99.90;;;;;;5050139;28;20045;-72
2021/11/06 06:16:32;;;;;;;66.50;11.93;;;2.60;99.90;;;;;;5033353;28;20408;-72
2021/11/06 06:18:59;;;;;;;41.22;9.63;;;2.60;99.90;;;;;;5034053;28;20069;-72
2021/11/06 06:21:26;;;;;;;15.00;8.50;;;2.60;99.90;;;;;;5051426;28;20500;-72
2021/11/06 06:23:57;;;;;;;22.60;10.45;;;2.60;99.90;;;;;;5046369;28;20047;-72
2021/11/06 06:26:25;;;;;;;20.15;9.18;;;2.60;99.90;;;;;;5033534;28;20037;-72
2021/11/06 06:28:52;;;;;;;15.57;8.73;;;2.70;99.90;;;;;;5033354;28;20053;-72
2021/11/06 06:31:24;;;;;;;16.67;8.70;;;2.70;99.90;;;;;;5032278;28;20063;-72
2021/11/06 06:33:56;;;;;;;19.50;8.35;;;2.70;99.90;;;;;;5043007;28;20037;-72
2021/11/06 06:36:23;;;;;;;70.38;9.85;;;2.70;99.90;;;;;;5032894;28;20049;-72
2021/11/06 06:38:55;;;;;;;53.97;9.88;;;2.70;99.90;;;;;;5016560;28;20093;-72
2021/11/06 06:41:27;;;;;;;45.42;9.15;;;2.60;99.90;;;;;;5043799;28;20124;-72
2021/11/06 06:43:54;;;;;;;16.85;8.60;;;2.70;99.90;;;;;;5030536;28;20040;-72
2021/11/06 06:46:27;;;;;;;51.13;10.45;;;2.70;99.90;;;;;;5031251;28;20038;-72
2021/11/06 06:48:59;;;;;;;38.03;10.57;;;2.60;99.90;;;;;;5031161;28;20041;-72
2021/11/06 06:51:26;;;;;;;26.58;8.27;;;2.70;99.90;;;;;;5013741;28;20096;-72
2021/11/06 06:53:58;;;;;;;24.83;7.90;;;2.60;99.90;;;;;;5031295;28;20046;-72
2021/11/06 06:56:25;;;;;;;32.20;8.63;;;2.60;99.90;;;;;;5015102;28;20046;-72
2021/11/06 06:58:52;;;;;;;20.95;8.85;;;2.60;99.90;;;;;;5031839;28;20103;-72
2021/11/06 07:01:18;;;;;;;37.28;9.27;;;2.60;99.90;;;;;;5047838;28;20056;-72
2021/11/06 07:03:50;;;;;;;31.73;8.75;;;2.60;99.90;;;;;;5050637;28;20036;-72
2021/11/06 07:06:22;;;;;;;25.15;8.40;;;2.60;99.90;;;;;;5021711;28;20407;-72
2021/11/06 07:08:56;;;;;;;18.38;7.43;;;2.50;99.90;;;;;;5032720;28;20056;-72
2021/11/06 07:11:28;;;;;;;24.25;8.25;;;2.50;99.90;;;;;;5033440;28;20041;-72
2021/11/06 07:14:01;;;;;;;50.13;10.27;;;2.50;99.90;;;;;;5033593;28;20405;-72
2021/11/06 07:16:32;;;;;;;27.92;9.93;;;2.60;99.90;;;;;;5049134;28;20040;-73
2021/11/06 07:18:59;;;;;;;37.33;10.30;;;2.70;99.90;;;;;;5032526;28;20483;-72
2021/11/06 07:21:26;;;;;;;36.47;9.63;;;2.80;99.90;;;;;;5016303;28;20040;-72
2021/11/06 07:23:53;;;;;;;47.35;11.45;;;2.80;99.90;;;;;;5032614;28;20051;-72
2021/11/06 07:26:25;;;;;;;39.40;10.82;;;2.80;99.90;;;;;;5033611;28;20037;-73
2021/11/06 07:28:52;;;;;;;44.83;9.75;;;2.80;99.90;;;;;;5016788;28;20495;-72
2021/11/06 07:31:19;;;;;;;16.40;10.07;;;2.80;99.90;;;;;;5050671;28;20037;-72
2021/11/06 07:33:48;;;;;;;36.08;9.77;;;2.80;99.90;;;;;;5032086;28;20149;-72
2021/11/06 07:36:16;;;;;;;47.58;10.27;;;2.90;99.90;;;;;;5032462;28;20407;-72
2021/11/06 07:38:43;;;;;;;49.10;11.52;;;2.90;99.90;;;;;;5032551;28;20037;-72
2021/11/06 07:41:10;;;;;;;36.78;10.55;;;2.90;99.90;;;;;;5051241;28;20049;-72
2021/11/06 07:43:37;;;;;;;42.88;10.80;;;2.90;99.90;;;;;;5050728;28;20538;-72
2021/11/06 07:46:05;;;;;;;43.30;10.73;;;2.90;99.90;;;;;;5032865;28;20049;-72
2021/11/06 07:48:37;;;;;;;57.50;16.15;;;2.90;99.90;;;;;;5034580;28;20212;-72
2021/11/06 07:51:09;;;;;;;37.97;9.77;;;2.90;99.90;;;;;;5050578;28;20041;-72
2021/11/06 07:53:36;;;;;;;49.63;11.63;;;2.90;99.90;;;;;;5013824;28;20045;-74
2021/11/06 07:56:04;;;;;;;46.15;11.68;;;2.90;99.90;;;;;;5015503;28;20049;-72
2021/11/06 07:58:36;;;;;;;23.80;9.60;;;2.90;99.90;;;;;;5050458;28;20040;-72
2021/11/06 08:01:08;;;;;;;48.58;13.80;;;2.90;99.90;;;;;;5050198;28;20095;-73
2021/11/06 08:03:35;;;;;;;43.53;11.07;;;3.00;99.90;;;;;;5033170;28;20045;-72
2021/11/06 08:06:03;;;;;;;67.70;12.45;;;2.90;99.90;;;;;;5032445;28;20052;-72
2021/11/06 08:08:35;;;;;;;23.92;10.80;;;2.90;99.90;;;;;;5033296;28;20036;-72
2021/11/06 08:11:07;;;;;;;26.45;10.25;;;3.00;99.90;;;;;;5017044;28;20040;-72
2021/11/06 08:13:39;;;;;;;25.15;9.10;;;3.10;99.90;;;;;;5050708;28;20033;-72
2021/11/06 08:16:11;;;;;;;33.83;10.48;;;3.10;99.90;;;;;;5015767;28;20037;-72
2021/11/06 08:18:44;;;;;;;38.10;12.15;;;3.10;99.90;;;;;;5033676;28;20095;-72
2021/11/06 08:21:17;;;;;;;40.13;10.40;;;3.00;99.90;;;;;;5016481;28;20400;-72
2021/11/06 08:23:49;;;;;;;25.52;10.93;;;3.10;99.90;;;;;;5032933;28;20037;-72
2021/11/06 08:26:21;;;;;;;49.85;16.95;;;3.10;99.90;;;;;;5036083;28;20049;-72
2021/11/06 08:28:48;;;;;;;29.55;15.10;;;3.10;99.90;;;;;;5030607;28;20053;-72
2021/11/06 08:31:20;;;;;;;45.13;15.90;;;3.20;99.90;;;;;;5032217;28;20056;-72
2021/11/06 08:33:52;;;;;;;23.57;12.77;;;3.20;99.90;;;;;;5032654;28;20045;-72
2021/11/06 08:36:19;;;;;;;48.05;13.13;;;3.20;99.90;;;;;;5026952;28;20068;-72
2021/11/06 08:38:51;;;;;;;31.60;12.77;;;3.30;99.90;;;;;;5047284;28;20037;-74
2021/11/06 08:41:18;;;;;;;32.50;12.13;;;3.30;99.90;;;;;;5014648;28;20499;-72
2021/11/06 08:43:50;;;;;;;56.85;15.82;;;3.30;99.90;;;;;;5017312;28;20077;-72
2021/11/06 08:46:22;;;;;;;39.78;17.33;;;3.40;99.90;;;;;;5032293;28;20077;-72
2021/11/06 08:48:49;;;;;;;39.20;17.25;;;3.40;99.90;;;;;;5015813;28;20077;-73
2021/11/06 08:51:21;;;;;;;67.40;17.95;;;3.50;99.90;;;;;;5016749;28;20120;-72
2021/11/06 08:53:53;;;;;;;31.70;18.48;;;3.50;99.90;;;;;;5016687;28;20124;-72
2021/11/06 08:56:28;;;;;;;36.22;17.92;;;3.60;99.90;;;;;;5016537;28;20041;-73
2021/11/06 08:58:56;;;;;;;37.38;18.15;;;3.70;99.90;;;;;;5033808;28;20718;-72
2021/11/06 09:01:24;;;;;;;55.67;21.52;;;3.70;99.90;;;;;;5015855;28;20046;-72
2021/11/06 09:03:52;;;;;;;66.75;28.45;;;3.80;99.90;;;;;;5033483;28;20059;-72
2021/11/06 09:06:24;;;;;;;83.72;40.88;;;3.80;99.90;;;;;;5015432;28;20057;-73
2021/11/06 09:08:56;;;;;;;94.88;42.10;;;3.80;99.90;;;;;;5015657;28;20453;-72
2021/11/06 09:11:29;;;;;;;91.93;46.60;;;3.90;99.90;;;;;;5014312;28;20566;-72
2021/11/06 09:14:01;;;;;;;60.05;33.90;;;3.90;99.90;;;;;;5016080;28;20397;-72
2021/11/06 09:16:28;;;;;;;58.38;25.10;;;3.90;99.90;;;;;;5015881;28;20045;-72
2021/11/06 09:19:02;;;;;;;35.42;17.40;;;4.00;99.90;;;;;;5000044;28;20068;-72
2021/11/06 09:21:30;;;;;;;37.00;16.95;;;4.00;99.90;;;;;;4999340;28;20063;-72
2021/11/06 09:24:01;;;;;;;35.25;16.85;;;4.00;99.90;;;;;;5015120;28;20056;-72
2021/11/06 09:26:43;;;;;;;31.50;16.20;;;4.00;99.90;;;;;;5033133;28;20049;-72
2021/11/06 09:29:11;;;;;;;30.83;16.00;;;4.10;99.90;;;;;;5015378;28;20057;-72
2021/11/06 09:31:44;;;;;;;34.13;14.90;;;4.10;99.90;;;;;;5016348;28;20427;-72
2021/11/06 09:34:16;;;;;;;26.60;14.85;;;4.10;99.90;;;;;;5032596;28;20045;-72
2021/11/06 09:36:48;;;;;;;27.05;15.15;;;4.10;99.90;;;;;;5016206;28;20053;-73
2021/11/06 09:39:15;;;;;;;25.95;12.75;;;4.10;99.90;;;;;;5033106;28;20038;-72
2021/11/06 09:41:47;;;;;;;24.20;12.88;;;4.20;99.90;;;;;;4999638;28;20056;-72
2021/11/06 09:44:14;;;;;;;24.38;12.90;;;4.20;99.90;;;;;;5032442;28;20045;-72
2021/11/06 09:46:46;;;;;;;27.75;15.07;;;4.30;99.90;;;;;;5015183;28;20424;-72
2021/11/06 09:49:19;;;;;;;27.10;15.10;;;4.30;99.90;;;;;;4999426;28;20041;-72
2021/11/06 09:51:51;;;;;;;28.98;15.10;;;4.40;99.90;;;;;;5032739;28;20046;-72
2021/11/06 09:54:18;;;;;;;23.13;13.63;;;4.50;99.90;;;;;;5014631;28;20049;-72
2021/11/06 09:56:45;;;;;;;24.08;13.07;;;4.50;99.90;;;;;;5014779;28;20052;-72
2021/11/06 09:59:17;;;;;;;25.73;13.80;;;4.50;99.90;;;;;;5015180;28;20060;-72
2021/11/06 10:01:49;;;;;;;29.08;14.82;;;4.50;99.90;;;;;;5032505;28;20069;-72
2021/11/06 10:04:16;;;;;;;26.17;15.13;;;4.50;99.90;;;;;;5014215;28;20052;-72
2021/11/06 10:06:44;;;;;;;29.05;16.50;;;4.60;99.90;;;;;;5014944;28;20460;-72
2021/11/06 10:09:18;;;;;;;29.90;15.95;;;4.60;99.90;;;;;;5015556;28;20045;-72
2021/11/06 10:11:53;;;;;;;22.95;14.45;;;4.70;99.90;;;;;;5014477;28;20053;-72
2021/11/06 10:14:23;;;;;;;29.55;14.40;;;4.70;99.90;;;;;;4997909;28;20101;-72
2021/11/06 10:17:00;;;;;;;24.38;14.95;;;4.80;99.90;;;;;;5030097;28;20045;-72
2021/11/06 10:19:36;;;;;;;27.88;14.68;;;4.80;99.90;;;;;;5035451;28;20038;-72
2021/11/06 10:22:10;;;;;;;28.83;15.60;;;4.80;99.90;;;;;;5014459;28;20041;-72
2021/11/06 10:24:51;;;;;;;30.73;16.63;;;4.90;99.90;;;;;;5014666;28;20056;-72
2021/11/06 10:27:33;;;;;;;26.17;15.23;;;5.00;99.90;;;;;;5015679;28;20484;-72
2021/11/06 10:30:14;;;;;;;33.03;15.48;;;5.00;99.90;;;;;;5031600;28;20041;-72
2021/11/06 10:32:54;;;;;;;38.45;19.95;;;5.00;99.90;;;;;;5013737;28;20093;-72
2021/11/06 10:35:33;;;;;;;31.85;16.35;;;5.20;99.90;;;;;;5013441;28;20049;-72
2021/11/06 10:38:05;;;;;;;;;;;5.20;99.90;;;;;;4997847;28;20501;-72
2021/11/06 10:40:36;;;;;;;32.88;15.32;;;5.20;99.90;;;;;;5029285;28;19921;-71
2021/11/06 10:43:10;;;;;;;29.40;15.20;;;5.20;99.90;;;;;;5033489;28;20045;-72
2021/11/06 10:45:54;;;;;;;32.42;17.92;;;5.20;99.90;;;;;;5032058;28;20493;-71
2021/11/06 10:48:31;;;;;;;39.50;21.35;;;5.30;99.90;;;;;;5019080;28;20117;-72
2021/11/06 10:51:08;;;;;;;32.60;18.65;;;5.50;99.90;;;;;;5032451;28;20045;-72
2021/11/06 10:53:48;;;;;;;33.08;17.55;;;5.60;99.90;;;;;;5032124;28;20040;-72
2021/11/06 10:56:20;;;;;;;32.70;17.85;;;5.60;99.90;;;;;;5032733;28;20448;-72
2021/11/06 10:58:49;;;;;;;32.25;17.67;;;5.70;99.90;;;;;;5034019;28;20519;-72
2021/11/06 11:01:25;;;;;;;31.67;16.92;;;5.70;99.90;;;;;;5051718;28;20045;-72
2021/11/06 11:04:10;;;;;;;32.45;16.63;;;5.70;99.90;;;;;;5034602;28;20053;-72
2021/11/06 11:06:48;;;;;;;35.00;16.85;;;5.60;99.90;;;;;;5033818;28;20435;-72
2021/11/06 11:09:26;;;;;;;34.03;17.88;;;5.40;99.90;;;;;;5051016;28;20052;-72
2021/11/06 11:12:01;;;;;;;31.83;18.30;;;5.30;99.90;;;;;;5051624;28;20116;-72
2021/11/06 11:14:33;;;;;;;32.42;18.48;;;5.30;99.90;;;;;;5051519;28;20060;-72
2021/11/06 11:17:03;;;;;;;36.35;19.98;;;5.40;99.90;;;;;;5033696;28;20038;-72
2021/11/06 11:19:33;;;;;;;34.13;17.50;;;5.40;99.90;;;;;;5033723;28;20410;-72
2021/11/06 11:22:19;;;;;;;35.88;16.88;;;5.50;99.90;;;;;;5034403;28;20044;-72
2021/11/06 11:24:52;;;;;;;34.15;17.75;;;5.50;99.90;;;;;;5050869;28;20040;-72
2021/11/06 11:27:19;;;;;;;30.73;16.70;;;5.60;99.90;;;;;;5033540;28;20041;-72
2021/11/06 11:29:51;;;;;;;31.75;16.58;;;5.60;99.90;;;;;;5034654;28;20045;-72
2021/11/06 11:32:23;;;;;;;33.95;16.13;;;5.60;99.90;;;;;;5017893;28;20081;-72
2021/11/06 11:34:55;;;;;;;32.20;17.15;;;5.70;99.90;;;;;;5033252;28;20107;-72
2021/11/06 11:37:22;;;;;;;35.88;18.70;;;5.70;99.90;;;;;;5033504;28;20053;-72
2021/11/06 11:39:52;;;;;;;31.95;16.67;;;5.80;99.90;;;;;;5033696;28;20052;-72
2021/11/06 11:42:40;;;;;;;29.52;15.32;;;5.80;99.90;;;;;;5033368;28;20084;-72
2021/11/06 11:45:25;;;;;;;32.50;17.25;;;5.90;99.90;;;;;;5034009;28;20037;-72
2021/11/06 11:48:00;;;;;;;33.15;17.08;;;5.90;99.90;;;;;;5051373;28;20044;-72
2021/11/06 11:50:35;;;;;;;31.40;17.25;;;6.00;99.90;;;;;;5017420;28;20052;-72
2021/11/06 11:53:10;;;;;;;36.10;18.58;;;6.00;99.90;;;;;;5033364;28;20051;-72
2021/11/06 11:55:46;;;;;;;37.13;17.75;;;5.90;99.90;;;;;;5033133;28;20112;-72
2021/11/06 11:58:22;;;;;;;32.63;17.17;;;6.00;99.90;;;;;;5033489;28;20040;-72
2021/11/06 12:00:56;;;;;;;33.75;18.08;;;5.90;99.90;;;;;;5033206;28;20049;-72
2021/11/06 12:03:34;;;;;;;29.73;16.33;;;5.90;99.90;;;;;;5034145;28;20044;-72
2021/11/06 12:06:25;;;;;;;33.47;17.67;;;6.00;99.90;;;;;;5050875;28;20041;-72
2021/11/06 12:09:18;;;;;;;34.40;17.75;;;6.10;99.90;;;;;;5033279;28;20052;-72
2021/11/06 12:11:56;;;;;;;32.55;17.80;;;6.20;99.90;;;;;;5051022;28;20096;-72
2021/11/06 12:14:31;;;;;;;31.23;17.27;;;6.20;99.90;;;;;;5017269;28;20045;-72
2021/11/06 12:17:04;;;;;;;35.60;19.58;;;6.20;99.90;;;;;;5032974;28;20044;-72
2021/11/06 12:19:36;;;;;;;34.58;18.25;;;6.20;99.90;;;;;;5034124;28;20499;-72
2021/11/06 12:22:26;;;;;;;39.03;19.97;;;6.30;99.90;;;;;;5054848;28;20063;-72
2021/11/06 12:25:12;;;;;;;33.58;17.83;;;6.30;99.90;;;;;;5054626;28;20461;-72
2021/11/06 12:27:50;;;;;;;33.20;18.65;;;6.40;99.90;;;;;;5054638;28;20041;-72
2021/11/06 12:30:28;;;;;;;36.35;19.55;;;6.40;99.90;;;;;;5037689;28;20119;-72
2021/11/06 12:33:03;;;;;;;37.97;19.95;;;6.50;99.90;;;;;;5036485;28;20047;-72
2021/11/06 12:35:34;;;;;;;33.65;19.30;;;6.50;99.90;;;;;;5036270;28;20049;-72
2021/11/06 12:38:07;;;;;;;31.25;18.25;;;6.60;99.90;;;;;;5036551;28;20495;-72
2021/11/06 12:40:52;;;;;;;34.22;18.50;;;6.60;99.90;;;;;;5054661;28;20036;-72
2021/11/06 12:43:27;;;;;;;34.25;18.15;;;6.60;99.90;;;;;;5036558;28;20720;-72
2021/11/06 12:46:13;;;;;;;32.65;17.88;;;6.60;99.90;;;;;;5054110;28;20072;-72
2021/11/06 12:48:44;;;;;;;34.53;18.70;;;6.70;99.90;;;;;;5036606;28;20041;-72
2021/11/06 12:51:15;;;;;;;32.10;18.45;;;6.70;99.90;;;;;;5054236;28;20384;-72
2021/11/06 12:53:50;;;;;;;31.65;18.63;;;6.70;99.90;;;;;;5036234;28;20056;-72
2021/11/06 12:56:18;;;;;;;32.15;19.85;;;6.70;99.90;;;;;;5053874;28;20064;-72
2021/11/06 12:59:00;;;;;;;33.47;18.80;;;6.70;99.90;;;;;;5036043;28;20048;-72
2021/11/06 13:01:34;;;;;;;32.25;17.58;;;6.70;99.90;;;;;;5036270;28;20045;-72
2021/11/06 13:04:15;;;;;;;32.72;17.45;;;6.70;99.90;;;;;;5035856;28;20045;-72